sensor_id;sensor_type;location;lat;lon;timestamp;P1;durP1;ratioP1;P2;durP2;ratioP2
32505;SDS011;18955;51.224;8.482;2023-03-31T00:00:51;9.13;;;1.80;;
32505;SDS011;18955;51.224;8.482;2023-03-31T00:03:18;10.32;;;1.70;;
32505;SDS011;18955;51.224;8.482;2023-03-31T00:05:48;5.05;;;1.33;;
32505;SDS011;18955;51.224;8.482;2023-03-31T00:08:19;8.98;;;1.90;;
32505;SDS011;18955;51.224;8.482;2023-03-31T00:10:46;7.20;;;1.73;;
32505;SDS011;18955;51.224;8.482;2023-03-31T00:15:38;6.30;;;1.70;;
32505;SDS011;18955;51.224;8.482;2023-03-31T00:18:05;6.10;;;1.40;;
32505;SDS011;18955;51.224;8.482;2023-03-31T00:20:31;14.50;;;2.10;;
32505;SDS011;18955;51.224;8.482;2023-03-31T00:22:58;3.53;;;1.50;;
32505;SDS011;18955;51.224;8.482;2023-03-31T00:25:26;8.68;;;1.55;;
32505;SDS011;18955;51.224;8.482;2023-03-31T00:27:52;5.32;;;1.67;;
32505;SDS011;18955;51.224;8.482;2023-03-31T00:30:18;9.88;;;1.88;;
32505;SDS011;18955;51.224;8.482;2023-03-31T00:32:45;8.38;;;1.83;;
32505;SDS011;18955;51.224;8.482;2023-03-31T00:35:12;6.38;;;1.73;;
32505;SDS011;18955;51.224;8.482;2023-03-31T00:37:38;8.02;;;1.65;;
32505;SDS011;18955;51.224;8.482;2023-03-31T00:40:04;5.25;;;1.35;;
32505;SDS011;18955;51.224;8.482;2023-03-31T00:42:41;5.30;;;1.40;;
32505;SDS011;18955;51.224;8.482;2023-03-31T00:47:44;6.05;;;1.50;;
32505;SDS011;18955;51.224;8.482;2023-03-31T00:50:16;9.65;;;1.67;;
32505;SDS011;18955;51.224;8.482;2023-03-31T00:52:56;9.55;;;2.03;;
32505;SDS011;18955;51.224;8.482;2023-03-31T00:55:37;9.18;;;1.60;;
32505;SDS011;18955;51.224;8.482;2023-03-31T00:58:07;4.72;;;1.30;;
32505;SDS011;18955;51.224;8.482;2023-03-31T01:00:39;7.93;;;1.73;;
32505;SDS011;18955;51.224;8.482;2023-03-31T01:03:07;11.43;;;1.42;;
32505;SDS011;18955;51.224;8.482;2023-03-31T01:08:31;7.18;;;1.63;;
32505;SDS011;18955;51.224;8.482;2023-03-31T01:11:02;5.90;;;1.77;;
32505;SDS011;18955;51.224;8.482;2023-03-31T01:13:33;8.30;;;1.40;;
32505;SDS011;18955;51.224;8.482;2023-03-31T01:16:01;9.25;;;1.40;;
32505;SDS011;18955;51.224;8.482;2023-03-31T01:18:28;12.23;;;2.25;;
32505;SDS011;18955;51.224;8.482;2023-03-31T01:27:55;7.95;;;1.88;;
32505;SDS011;18955;51.224;8.482;2023-03-31T01:44:12;13.07;;;1.95;;
32505;SDS011;18955;51.224;8.482;2023-03-31T01:47:01;7.68;;;1.70;;
32505;SDS011;18955;51.224;8.482;2023-03-31T01:52:24;7.43;;;1.90;;
32505;SDS011;18955;51.224;8.482;2023-03-31T02:00:08;4.25;;;1.10;;
32505;SDS011;18955;51.224;8.482;2023-03-31T02:02:52;5.50;;;1.00;;
32505;SDS011;18955;51.224;8.482;2023-03-31T02:05:31;5.70;;;0.90;;
32505;SDS011;18955;51.224;8.482;2023-03-31T02:08:06;4.25;;;1.02;;
32505;SDS011;18955;51.224;8.482;2023-03-31T02:10:39;2.72;;;0.70;;
32505;SDS011;18955;51.224;8.482;2023-03-31T02:13:08;4.32;;;1.00;;
32505;SDS011;18955;51.224;8.482;2023-03-31T02:15:41;4.38;;;0.90;;
32505;SDS011;18955;51.224;8.482;2023-03-31T02:18:12;4.13;;;0.93;;
32505;SDS011;18955;51.224;8.482;2023-03-31T02:20:43;1.42;;;0.77;;
32505;SDS011;18955;51.224;8.482;2023-03-31T02:23:14;3.15;;;0.50;;
32505;SDS011;18955;51.224;8.482;2023-03-31T02:25:53;6.30;;;0.70;;
32505;SDS011;18955;51.224;8.482;2023-03-31T02:28:32;2.85;;;0.80;;
32505;SDS011;18955;51.224;8.482;2023-03-31T02:33:25;3.85;;;0.90;;
32505;SDS011;18955;51.224;8.482;2023-03-31T02:35:52;2.70;;;0.63;;
32505;SDS011;18955;51.224;8.482;2023-03-31T02:38:20;1.20;;;0.50;;
32505;SDS011;18955;51.224;8.482;2023-03-31T02:40:47;0.98;;;0.60;;
32505;SDS011;18955;51.224;8.482;2023-03-31T02:43:13;6.25;;;0.70;;
32505;SDS011;18955;51.224;8.482;2023-03-31T02:45:44;7.32;;;1.38;;
32505;SDS011;18955;51.224;8.482;2023-03-31T02:48:16;5.50;;;1.52;;
32505;SDS011;18955;51.224;8.482;2023-03-31T02:53:24;4.07;;;0.98;;
32505;SDS011;18955;51.224;8.482;2023-03-31T02:58:37;5.55;;;0.98;;
32505;SDS011;18955;51.224;8.482;2023-03-31T03:04:13;7.38;;;1.20;;
32505;SDS011;18955;51.224;8.482;2023-03-31T03:12:33;9.25;;;1.98;;
32505;SDS011;18955;51.224;8.482;2023-03-31T03:17:59;4.90;;;1.70;;
32505;SDS011;18955;51.224;8.482;2023-03-31T03:20:26;7.28;;;1.60;;
32505;SDS011;18955;51.224;8.482;2023-03-31T03:22:52;7.07;;;1.25;;
32505;SDS011;18955;51.224;8.482;2023-03-31T03:25:18;8.00;;;1.23;;
32505;SDS011;18955;51.224;8.482;2023-03-31T03:27:45;12.88;;;1.98;;
32505;SDS011;18955;51.224;8.482;2023-03-31T03:32:38;11.07;;;2.53;;
32505;SDS011;18955;51.224;8.482;2023-03-31T03:35:05;12.55;;;2.33;;
32505;SDS011;18955;51.224;8.482;2023-03-31T03:39:58;10.75;;;1.95;;
32505;SDS011;18955;51.224;8.482;2023-03-31T03:42:25;6.00;;;1.27;;
32505;SDS011;18955;51.224;8.482;2023-03-31T03:44:51;8.13;;;1.83;;
32505;SDS011;18955;51.224;8.482;2023-03-31T03:47:17;8.88;;;2.55;;
32505;SDS011;18955;51.224;8.482;2023-03-31T03:49:43;8.93;;;1.60;;
32505;SDS011;18955;51.224;8.482;2023-03-31T03:52:09;5.53;;;1.15;;
32505;SDS011;18955;51.224;8.482;2023-03-31T03:54:36;8.85;;;1.95;;
32505;SDS011;18955;51.224;8.482;2023-03-31T03:57:02;8.25;;;1.38;;
32505;SDS011;18955;51.224;8.482;2023-03-31T03:59:28;6.90;;;1.48;;
32505;SDS011;18955;51.224;8.482;2023-03-31T04:01:54;8.50;;;1.27;;
32505;SDS011;18955;51.224;8.482;2023-03-31T04:04:20;12.43;;;2.00;;
32505;SDS011;18955;51.224;8.482;2023-03-31T04:06:47;6.88;;;1.25;;
32505;SDS011;18955;51.224;8.482;2023-03-31T04:09:13;9.48;;;1.92;;
32505;SDS011;18955;51.224;8.482;2023-03-31T04:11:40;6.15;;;1.40;;
32505;SDS011;18955;51.224;8.482;2023-03-31T04:14:06;6.22;;;1.73;;
32505;SDS011;18955;51.224;8.482;2023-03-31T04:16:32;7.88;;;1.55;;
32505;SDS011;18955;51.224;8.482;2023-03-31T04:18:59;6.10;;;1.25;;
32505;SDS011;18955;51.224;8.482;2023-03-31T04:21:28;5.85;;;1.25;;
32505;SDS011;18955;51.224;8.482;2023-03-31T04:23:59;12.10;;;1.60;;
32505;SDS011;18955;51.224;8.482;2023-03-31T04:26:30;5.93;;;1.30;;
32505;SDS011;18955;51.224;8.482;2023-03-31T04:29:08;8.05;;;1.60;;
32505;SDS011;18955;51.224;8.482;2023-03-31T04:31:37;11.27;;;1.40;;
32505;SDS011;18955;51.224;8.482;2023-03-31T04:34:10;7.97;;;1.67;;
32505;SDS011;18955;51.224;8.482;2023-03-31T04:36:39;10.68;;;1.60;;
32505;SDS011;18955;51.224;8.482;2023-03-31T04:39:14;27.95;;;2.40;;
32505;SDS011;18955;51.224;8.482;2023-03-31T04:41:41;12.02;;;1.38;;
32505;SDS011;18955;51.224;8.482;2023-03-31T04:44:08;10.82;;;2.33;;
32505;SDS011;18955;51.224;8.482;2023-03-31T04:46:34;9.73;;;1.42;;
32505;SDS011;18955;51.224;8.482;2023-03-31T04:49:00;8.05;;;1.30;;
32505;SDS011;18955;51.224;8.482;2023-03-31T04:53:53;6.97;;;1.42;;
32505;SDS011;18955;51.224;8.482;2023-03-31T04:58:47;8.70;;;1.40;;
32505;SDS011;18955;51.224;8.482;2023-03-31T05:01:13;6.05;;;1.42;;
32505;SDS011;18955;51.224;8.482;2023-03-31T05:03:43;12.88;;;1.60;;
32505;SDS011;18955;51.224;8.482;2023-03-31T05:06:10;16.48;;;1.83;;
32505;SDS011;18955;51.224;8.482;2023-03-31T05:08:36;4.75;;;1.40;;
32505;SDS011;18955;51.224;8.482;2023-03-31T05:11:03;10.20;;;2.03;;
32505;SDS011;18955;51.224;8.482;2023-03-31T05:13:29;8.05;;;1.33;;
32505;SDS011;18955;51.224;8.482;2023-03-31T05:15:55;5.60;;;0.90;;
32505;SDS011;18955;51.224;8.482;2023-03-31T05:18:21;8.75;;;1.40;;
32505;SDS011;18955;51.224;8.482;2023-03-31T05:20:48;8.63;;;1.10;;
32505;SDS011;18955;51.224;8.482;2023-03-31T05:23:14;11.35;;;1.20;;
32505;SDS011;18955;51.224;8.482;2023-03-31T05:25:40;8.20;;;1.60;;
32505;SDS011;18955;51.224;8.482;2023-03-31T05:28:07;8.80;;;1.58;;
32505;SDS011;18955;51.224;8.482;2023-03-31T05:30:36;5.72;;;1.38;;
32505;SDS011;18955;51.224;8.482;2023-03-31T05:33:03;12.65;;;1.60;;
32505;SDS011;18955;51.224;8.482;2023-03-31T05:35:29;15.45;;;1.65;;
32505;SDS011;18955;51.224;8.482;2023-03-31T05:37:55;5.13;;;1.08;;
32505;SDS011;18955;51.224;8.482;2023-03-31T05:40:21;11.63;;;1.30;;
32505;SDS011;18955;51.224;8.482;2023-03-31T05:42:48;4.63;;;1.10;;
32505;SDS011;18955;51.224;8.482;2023-03-31T05:45:14;3.83;;;0.85;;
32505;SDS011;18955;51.224;8.482;2023-03-31T05:47:40;11.02;;;1.23;;
32505;SDS011;18955;51.224;8.482;2023-03-31T05:50:06;7.18;;;1.48;;
32505;SDS011;18955;51.224;8.482;2023-03-31T05:55:00;4.85;;;1.02;;
32505;SDS011;18955;51.224;8.482;2023-03-31T05:57:26;7.07;;;1.17;;
32505;SDS011;18955;51.224;8.482;2023-03-31T05:59:52;5.45;;;0.90;;
32505;SDS011;18955;51.224;8.482;2023-03-31T06:02:18;3.17;;;0.77;;
32505;SDS011;18955;51.224;8.482;2023-03-31T06:04:44;5.13;;;1.00;;
32505;SDS011;18955;51.224;8.482;2023-03-31T06:07:11;4.32;;;1.10;;
32505;SDS011;18955;51.224;8.482;2023-03-31T06:09:39;4.82;;;1.00;;
32505;SDS011;18955;51.224;8.482;2023-03-31T06:12:05;4.28;;;1.02;;
32505;SDS011;18955;51.224;8.482;2023-03-31T06:14:32;1.67;;;0.73;;
32505;SDS011;18955;51.224;8.482;2023-03-31T06:16:59;3.88;;;0.70;;
32505;SDS011;18955;51.224;8.482;2023-03-31T06:19:25;5.82;;;1.73;;
32505;SDS011;18955;51.224;8.482;2023-03-31T06:21:51;5.05;;;1.00;;
32505;SDS011;18955;51.224;8.482;2023-03-31T06:24:18;5.78;;;1.05;;
32505;SDS011;18955;51.224;8.482;2023-03-31T06:26:44;1.40;;;0.65;;
32505;SDS011;18955;51.224;8.482;2023-03-31T06:29:10;3.78;;;0.82;;
32505;SDS011;18955;51.224;8.482;2023-03-31T06:31:36;4.28;;;0.82;;
32505;SDS011;18955;51.224;8.482;2023-03-31T06:34:03;5.68;;;0.85;;
32505;SDS011;18955;51.224;8.482;2023-03-31T06:36:29;2.38;;;1.30;;
32505;SDS011;18955;51.224;8.482;2023-03-31T06:38:55;3.33;;;1.13;;
32505;SDS011;18955;51.224;8.482;2023-03-31T06:41:22;2.88;;;0.77;;
32505;SDS011;18955;51.224;8.482;2023-03-31T06:43:48;1.48;;;0.80;;
32505;SDS011;18955;51.224;8.482;2023-03-31T06:46:15;6.53;;;1.30;;
32505;SDS011;18955;51.224;8.482;2023-03-31T06:48:41;3.47;;;0.57;;
32505;SDS011;18955;51.224;8.482;2023-03-31T06:51:07;4.65;;;0.88;;
32505;SDS011;18955;51.224;8.482;2023-03-31T06:53:35;3.95;;;1.00;;
32505;SDS011;18955;51.224;8.482;2023-03-31T06:56:01;3.08;;;0.70;;
32505;SDS011;18955;51.224;8.482;2023-03-31T06:58:28;3.55;;;1.20;;
32505;SDS011;18955;51.224;8.482;2023-03-31T07:00:54;2.92;;;1.10;;
32505;SDS011;18955;51.224;8.482;2023-03-31T07:03:21;6.03;;;0.80;;
32505;SDS011;18955;51.224;8.482;2023-03-31T07:05:50;4.47;;;0.80;;
32505;SDS011;18955;51.224;8.482;2023-03-31T07:08:17;5.72;;;0.80;;
32505;SDS011;18955;51.224;8.482;2023-03-31T07:10:45;3.72;;;0.70;;
32505;SDS011;18955;51.224;8.482;2023-03-31T07:13:14;9.52;;;1.02;;
32505;SDS011;18955;51.224;8.482;2023-03-31T07:15:41;2.17;;;0.75;;
32505;SDS011;18955;51.224;8.482;2023-03-31T07:18:07;4.97;;;0.90;;
32505;SDS011;18955;51.224;8.482;2023-03-31T07:20:34;6.43;;;0.80;;
32505;SDS011;18955;51.224;8.482;2023-03-31T07:23:02;4.55;;;1.05;;
32505;SDS011;18955;51.224;8.482;2023-03-31T07:25:29;3.28;;;0.60;;
32505;SDS011;18955;51.224;8.482;2023-03-31T07:27:55;9.55;;;0.63;;
32505;SDS011;18955;51.224;8.482;2023-03-31T07:30:22;3.70;;;0.50;;
32505;SDS011;18955;51.224;8.482;2023-03-31T07:32:49;2.65;;;0.70;;
32505;SDS011;18955;51.224;8.482;2023-03-31T07:35:16;3.65;;;0.60;;
32505;SDS011;18955;51.224;8.482;2023-03-31T07:37:44;2.60;;;0.60;;
32505;SDS011;18955;51.224;8.482;2023-03-31T07:40:17;6.75;;;0.60;;
32505;SDS011;18955;51.224;8.482;2023-03-31T07:42:51;0.90;;;0.45;;
32505;SDS011;18955;51.224;8.482;2023-03-31T07:45:18;1.42;;;0.73;;
32505;SDS011;18955;51.224;8.482;2023-03-31T07:47:46;4.45;;;0.70;;
32505;SDS011;18955;51.224;8.482;2023-03-31T07:52:40;2.10;;;0.60;;
32505;SDS011;18955;51.224;8.482;2023-03-31T07:57:34;3.45;;;0.65;;
32505;SDS011;18955;51.224;8.482;2023-03-31T08:00:01;5.35;;;0.65;;
32505;SDS011;18955;51.224;8.482;2023-03-31T08:02:37;0.30;;;0.30;;
32505;SDS011;18955;51.224;8.482;2023-03-31T08:05:06;3.35;;;0.50;;
32505;SDS011;18955;51.224;8.482;2023-03-31T08:07:34;5.00;;;0.70;;
32505;SDS011;18955;51.224;8.482;2023-03-31T08:10:02;9.75;;;0.63;;
32505;SDS011;18955;51.224;8.482;2023-03-31T08:12:30;4.18;;;0.80;;
32505;SDS011;18955;51.224;8.482;2023-03-31T08:14:57;12.90;;;0.75;;
32505;SDS011;18955;51.224;8.482;2023-03-31T08:17:23;1.35;;;0.47;;
32505;SDS011;18955;51.224;8.482;2023-03-31T08:19:49;3.00;;;0.40;;
32505;SDS011;18955;51.224;8.482;2023-03-31T08:22:16;5.60;;;0.60;;
32505;SDS011;18955;51.224;8.482;2023-03-31T08:24:43;3.90;;;0.60;;
32505;SDS011;18955;51.224;8.482;2023-03-31T08:27:09;1.40;;;0.55;;
32505;SDS011;18955;51.224;8.482;2023-03-31T08:29:35;7.70;;;0.68;;
32505;SDS011;18955;51.224;8.482;2023-03-31T08:32:02;2.03;;;0.60;;
32505;SDS011;18955;51.224;8.482;2023-03-31T08:34:28;2.13;;;0.40;;
32505;SDS011;18955;51.224;8.482;2023-03-31T08:36:54;3.50;;;0.50;;
32505;SDS011;18955;51.224;8.482;2023-03-31T08:39:21;1.23;;;0.57;;
32505;SDS011;18955;51.224;8.482;2023-03-31T08:41:53;0.82;;;0.50;;
32505;SDS011;18955;51.224;8.482;2023-03-31T08:47:03;3.20;;;0.52;;
32505;SDS011;18955;51.224;8.482;2023-03-31T08:49:38;3.22;;;0.50;;
32505;SDS011;18955;51.224;8.482;2023-03-31T08:52:18;2.25;;;0.57;;
32505;SDS011;18955;51.224;8.482;2023-03-31T08:54:53;1.95;;;0.65;;
32505;SDS011;18955;51.224;8.482;2023-03-31T09:00:12;2.50;;;0.60;;
32505;SDS011;18955;51.224;8.482;2023-03-31T09:02:59;2.97;;;1.02;;
32505;SDS011;18955;51.224;8.482;2023-03-31T09:08:31;3.80;;;0.93;;
32505;SDS011;18955;51.224;8.482;2023-03-31T09:16:27;1.95;;;0.80;;
32505;SDS011;18955;51.224;8.482;2023-03-31T09:18:59;7.38;;;1.00;;
32505;SDS011;18955;51.224;8.482;2023-03-31T09:24:02;1.35;;;0.63;;
32505;SDS011;18955;51.224;8.482;2023-03-31T09:26:39;6.53;;;1.33;;
32505;SDS011;18955;51.224;8.482;2023-03-31T09:29:14;8.50;;;1.20;;
32505;SDS011;18955;51.224;8.482;2023-03-31T09:34:15;9.48;;;2.10;;
32505;SDS011;18955;51.224;8.482;2023-03-31T09:36:49;5.32;;;1.30;;
32505;SDS011;18955;51.224;8.482;2023-03-31T09:39:15;6.03;;;1.30;;
32505;SDS011;18955;51.224;8.482;2023-03-31T09:41:43;9.07;;;1.55;;
32505;SDS011;18955;51.224;8.482;2023-03-31T09:44:22;10.52;;;1.60;;
32505;SDS011;18955;51.224;8.482;2023-03-31T09:46:49;4.90;;;1.30;;
32505;SDS011;18955;51.224;8.482;2023-03-31T09:49:17;5.40;;;1.40;;
32505;SDS011;18955;51.224;8.482;2023-03-31T09:51:48;12.32;;;1.40;;
32505;SDS011;18955;51.224;8.482;2023-03-31T09:54:23;10.02;;;1.52;;
32505;SDS011;18955;51.224;8.482;2023-03-31T09:56:54;7.93;;;1.58;;
32505;SDS011;18955;51.224;8.482;2023-03-31T09:59:21;14.48;;;1.70;;
32505;SDS011;18955;51.224;8.482;2023-03-31T10:02:01;11.32;;;2.03;;
32505;SDS011;18955;51.224;8.482;2023-03-31T10:04:46;12.25;;;1.83;;
32505;SDS011;18955;51.224;8.482;2023-03-31T10:07:12;6.13;;;1.75;;
32505;SDS011;18955;51.224;8.482;2023-03-31T10:09:45;9.13;;;1.27;;
32505;SDS011;18955;51.224;8.482;2023-03-31T10:12:15;8.02;;;1.30;;
32505;SDS011;18955;51.224;8.482;2023-03-31T10:17:15;10.13;;;1.80;;
32505;SDS011;18955;51.224;8.482;2023-03-31T10:19:57;7.10;;;1.67;;
32505;SDS011;18955;51.224;8.482;2023-03-31T10:22:28;7.10;;;1.58;;
32505;SDS011;18955;51.224;8.482;2023-03-31T10:25:08;7.35;;;1.50;;
32505;SDS011;18955;51.224;8.482;2023-03-31T10:27:40;8.60;;;1.60;;
32505;SDS011;18955;51.224;8.482;2023-03-31T10:30:09;14.00;;;1.42;;
32505;SDS011;18955;51.224;8.482;2023-03-31T10:32:38;7.28;;;1.35;;
32505;SDS011;18955;51.224;8.482;2023-03-31T10:35:28;13.57;;;1.30;;
32505;SDS011;18955;51.224;8.482;2023-03-31T10:38:02;13.15;;;1.77;;
32505;SDS011;18955;51.224;8.482;2023-03-31T10:40:35;10.07;;;2.08;;
32505;SDS011;18955;51.224;8.482;2023-03-31T10:43:03;7.30;;;1.30;;
32505;SDS011;18955;51.224;8.482;2023-03-31T10:45:37;9.52;;;1.67;;
32505;SDS011;18955;51.224;8.482;2023-03-31T10:48:16;13.00;;;1.70;;
32505;SDS011;18955;51.224;8.482;2023-03-31T10:50:54;7.55;;;1.80;;
32505;SDS011;18955;51.224;8.482;2023-03-31T10:53:24;8.43;;;1.45;;
32505;SDS011;18955;51.224;8.482;2023-03-31T10:59:04;12.25;;;1.90;;
32505;SDS011;18955;51.224;8.482;2023-03-31T11:16:22;19.50;;;1.95;;
32505;SDS011;18955;51.224;8.482;2023-03-31T11:19:47;12.10;;;1.75;;
32505;SDS011;18955;51.224;8.482;2023-03-31T11:32:36;6.95;;;1.70;;
32505;SDS011;18955;51.224;8.482;2023-03-31T11:40:58;10.32;;;1.70;;
32505;SDS011;18955;51.224;8.482;2023-03-31T11:43:35;5.35;;;1.20;;
32505;SDS011;18955;51.224;8.482;2023-03-31T11:46:29;6.47;;;1.50;;
32505;SDS011;18955;51.224;8.482;2023-03-31T11:48:59;10.23;;;1.70;;
32505;SDS011;18955;51.224;8.482;2023-03-31T11:51:41;6.25;;;1.40;;
32505;SDS011;18955;51.224;8.482;2023-03-31T11:54:17;13.38;;;2.00;;
32505;SDS011;18955;51.224;8.482;2023-03-31T11:56:53;8.95;;;2.00;;
32505;SDS011;18955;51.224;8.482;2023-03-31T11:59:21;8.30;;;1.20;;
32505;SDS011;18955;51.224;8.482;2023-03-31T12:04:35;9.25;;;1.77;;
32505;SDS011;18955;51.224;8.482;2023-03-31T12:12:19;10.38;;;2.10;;
32505;SDS011;18955;51.224;8.482;2023-03-31T12:14:51;8.40;;;1.40;;
32505;SDS011;18955;51.224;8.482;2023-03-31T12:17:25;3.58;;;0.88;;
32505;SDS011;18955;51.224;8.482;2023-03-31T12:19:52;6.88;;;1.25;;
32505;SDS011;18955;51.224;8.482;2023-03-31T12:22:26;8.07;;;1.08;;
32505;SDS011;18955;51.224;8.482;2023-03-31T12:24:56;4.43;;;1.33;;
32505;SDS011;18955;51.224;8.482;2023-03-31T12:27:26;5.88;;;1.20;;
32505;SDS011;18955;51.224;8.482;2023-03-31T12:32:54;12.20;;;1.35;;
32505;SDS011;18955;51.224;8.482;2023-03-31T12:35:32;7.10;;;1.25;;
32505;SDS011;18955;51.224;8.482;2023-03-31T12:38:05;5.68;;;1.40;;
32505;SDS011;18955;51.224;8.482;2023-03-31T12:41:04;12.80;;;1.50;;
32505;SDS011;18955;51.224;8.482;2023-03-31T12:52:23;13.23;;;1.58;;
32505;SDS011;18955;51.224;8.482;2023-03-31T12:57:46;9.70;;;1.10;;
32505;SDS011;18955;51.224;8.482;2023-03-31T13:02:48;6.25;;;1.15;;
32505;SDS011;18955;51.224;8.482;2023-03-31T13:08:06;9.23;;;1.02;;
32505;SDS011;18955;51.224;8.482;2023-03-31T13:10:51;3.50;;;1.00;;
32505;SDS011;18955;51.224;8.482;2023-03-31T13:13:24;3.90;;;1.02;;
32505;SDS011;18955;51.224;8.482;2023-03-31T13:18:19;4.78;;;0.98;;
32505;SDS011;18955;51.224;8.482;2023-03-31T13:20:56;8.15;;;1.63;;
32505;SDS011;18955;51.224;8.482;2023-03-31T13:23:24;5.95;;;1.00;;
32505;SDS011;18955;51.224;8.482;2023-03-31T13:30:50;5.50;;;1.05;;
32505;SDS011;18955;51.224;8.482;2023-03-31T13:33:41;9.07;;;1.98;;
32505;SDS011;18955;51.224;8.482;2023-03-31T14:09:45;8.32;;;1.00;;
32505;SDS011;18955;51.224;8.482;2023-03-31T14:15:00;6.78;;;1.02;;
32505;SDS011;18955;51.224;8.482;2023-03-31T14:17:30;6.93;;;1.10;;
32505;SDS011;18955;51.224;8.482;2023-03-31T14:31:08;5.32;;;1.05;;
32505;SDS011;18955;51.224;8.482;2023-03-31T14:36:57;7.85;;;1.05;;
32505;SDS011;18955;51.224;8.482;2023-03-31T14:39:28;4.15;;;1.10;;
32505;SDS011;18955;51.224;8.482;2023-03-31T14:42:09;6.47;;;1.20;;
32505;SDS011;18955;51.224;8.482;2023-03-31T14:44:39;4.32;;;1.23;;
32505;SDS011;18955;51.224;8.482;2023-03-31T14:49:40;9.88;;;1.40;;
32505;SDS011;18955;51.224;8.482;2023-03-31T14:52:12;6.38;;;1.02;;
32505;SDS011;18955;51.224;8.482;2023-03-31T14:54:38;4.18;;;0.90;;
32505;SDS011;18955;51.224;8.482;2023-03-31T14:57:05;3.70;;;1.20;;
32505;SDS011;18955;51.224;8.482;2023-03-31T14:59:32;6.90;;;1.10;;
32505;SDS011;18955;51.224;8.482;2023-03-31T15:02:00;2.17;;;0.85;;
32505;SDS011;18955;51.224;8.482;2023-03-31T15:04:29;7.10;;;0.93;;
32505;SDS011;18955;51.224;8.482;2023-03-31T15:07:01;4.47;;;0.80;;
32505;SDS011;18955;51.224;8.482;2023-03-31T15:09:29;6.35;;;0.73;;
32505;SDS011;18955;51.224;8.482;2023-03-31T15:12:00;4.68;;;0.80;;
32505;SDS011;18955;51.224;8.482;2023-03-31T15:14:30;6.20;;;1.00;;
32505;SDS011;18955;51.224;8.482;2023-03-31T15:17:01;5.13;;;0.82;;
32505;SDS011;18955;51.224;8.482;2023-03-31T15:19:29;3.13;;;0.93;;
32505;SDS011;18955;51.224;8.482;2023-03-31T15:22:01;5.13;;;0.60;;
32505;SDS011;18955;51.224;8.482;2023-03-31T15:24:35;8.85;;;0.60;;
32505;SDS011;18955;51.224;8.482;2023-03-31T15:27:02;4.72;;;1.00;;
32505;SDS011;18955;51.224;8.482;2023-03-31T15:32:12;5.13;;;0.70;;
32505;SDS011;18955;51.224;8.482;2023-03-31T15:34:52;10.07;;;0.90;;
32505;SDS011;18955;51.224;8.482;2023-03-31T15:37:24;5.13;;;1.35;;
32505;SDS011;18955;51.224;8.482;2023-03-31T15:39:54;4.15;;;0.75;;
32505;SDS011;18955;51.224;8.482;2023-03-31T15:42:23;5.10;;;0.90;;
32505;SDS011;18955;51.224;8.482;2023-03-31T15:47:49;2.10;;;0.80;;
32505;SDS011;18955;51.224;8.482;2023-03-31T15:50:16;5.47;;;1.08;;
32505;SDS011;18955;51.224;8.482;2023-03-31T15:52:47;4.78;;;1.02;;
32505;SDS011;18955;51.224;8.482;2023-03-31T15:55:29;6.70;;;1.17;;
32505;SDS011;18955;51.224;8.482;2023-03-31T15:58:03;7.78;;;1.10;;
32505;SDS011;18955;51.224;8.482;2023-03-31T16:02:56;2.35;;;0.57;;
32505;SDS011;18955;51.224;8.482;2023-03-31T16:05:31;9.35;;;1.10;;
32505;SDS011;18955;51.224;8.482;2023-03-31T16:08:15;4.75;;;0.80;;
32505;SDS011;18955;51.224;8.482;2023-03-31T16:10:47;6.53;;;1.20;;
32505;SDS011;18955;51.224;8.482;2023-03-31T16:13:19;3.55;;;0.70;;
32505;SDS011;18955;51.224;8.482;2023-03-31T16:15:50;6.82;;;1.10;;
32505;SDS011;18955;51.224;8.482;2023-03-31T16:18:32;5.32;;;0.82;;
32505;SDS011;18955;51.224;8.482;2023-03-31T16:21:17;11.10;;;1.00;;
32505;SDS011;18955;51.224;8.482;2023-03-31T16:26:19;4.53;;;0.60;;
32505;SDS011;18955;51.224;8.482;2023-03-31T16:28:48;5.07;;;0.88;;
32505;SDS011;18955;51.224;8.482;2023-03-31T16:31:27;6.28;;;0.90;;
32505;SDS011;18955;51.224;8.482;2023-03-31T16:34:05;8.93;;;1.10;;
32505;SDS011;18955;51.224;8.482;2023-03-31T16:36:33;8.43;;;1.15;;
32505;SDS011;18955;51.224;8.482;2023-03-31T16:38:59;3.05;;;0.75;;
32505;SDS011;18955;51.224;8.482;2023-03-31T16:41:30;8.18;;;1.15;;
32505;SDS011;18955;51.224;8.482;2023-03-31T16:44:01;5.53;;;0.90;;
32505;SDS011;18955;51.224;8.482;2023-03-31T16:46:27;6.70;;;1.08;;
32505;SDS011;18955;51.224;8.482;2023-03-31T16:48:54;8.63;;;1.00;;
32505;SDS011;18955;51.224;8.482;2023-03-31T16:51:20;14.48;;;2.17;;
32505;SDS011;18955;51.224;8.482;2023-03-31T16:53:47;4.88;;;0.93;;
32505;SDS011;18955;51.224;8.482;2023-03-31T16:56:14;2.83;;;1.08;;
32505;SDS011;18955;51.224;8.482;2023-03-31T16:58:40;7.22;;;1.20;;
32505;SDS011;18955;51.224;8.482;2023-03-31T17:01:08;6.85;;;0.98;;
32505;SDS011;18955;51.224;8.482;2023-03-31T17:03:35;5.68;;;1.10;;
32505;SDS011;18955;51.224;8.482;2023-03-31T17:06:05;6.82;;;1.55;;
32505;SDS011;18955;51.224;8.482;2023-03-31T17:08:34;4.93;;;1.30;;
32505;SDS011;18955;51.224;8.482;2023-03-31T17:11:09;10.27;;;1.45;;
32505;SDS011;18955;51.224;8.482;2023-03-31T17:13:39;4.60;;;0.95;;
32505;SDS011;18955;51.224;8.482;2023-03-31T17:16:08;6.43;;;1.10;;
32505;SDS011;18955;51.224;8.482;2023-03-31T17:18:35;4.57;;;0.98;;
32505;SDS011;18955;51.224;8.482;2023-03-31T17:21:08;6.53;;;0.80;;
32505;SDS011;18955;51.224;8.482;2023-03-31T17:23:36;4.70;;;1.13;;
32505;SDS011;18955;51.224;8.482;2023-03-31T17:26:04;9.23;;;1.20;;
32505;SDS011;18955;51.224;8.482;2023-03-31T17:28:31;6.40;;;0.93;;
32505;SDS011;18955;51.224;8.482;2023-03-31T17:30:58;4.55;;;0.90;;
32505;SDS011;18955;51.224;8.482;2023-03-31T17:33:25;4.57;;;0.88;;
32505;SDS011;18955;51.224;8.482;2023-03-31T17:35:55;4.70;;;1.00;;
32505;SDS011;18955;51.224;8.482;2023-03-31T17:38:23;6.63;;;1.15;;
32505;SDS011;18955;51.224;8.482;2023-03-31T17:40:51;8.35;;;1.35;;
32505;SDS011;18955;51.224;8.482;2023-03-31T17:43:19;5.82;;;1.30;;
32505;SDS011;18955;51.224;8.482;2023-03-31T17:45:46;3.67;;;0.80;;
32505;SDS011;18955;51.224;8.482;2023-03-31T17:50:40;5.68;;;1.00;;
32505;SDS011;18955;51.224;8.482;2023-03-31T17:53:06;3.35;;;0.90;;
32505;SDS011;18955;51.224;8.482;2023-03-31T17:58:03;6.30;;;1.10;;
32505;SDS011;18955;51.224;8.482;2023-03-31T18:00:31;5.25;;;1.10;;
32505;SDS011;18955;51.224;8.482;2023-03-31T18:02:57;5.40;;;1.27;;
32505;SDS011;18955;51.224;8.482;2023-03-31T18:05:23;4.65;;;1.17;;
32505;SDS011;18955;51.224;8.482;2023-03-31T18:07:49;3.38;;;0.95;;
32505;SDS011;18955;51.224;8.482;2023-03-31T18:12:43;5.82;;;1.13;;
32505;SDS011;18955;51.224;8.482;2023-03-31T18:15:11;3.58;;;1.00;;
32505;SDS011;18955;51.224;8.482;2023-03-31T18:17:37;3.83;;;1.08;;
32505;SDS011;18955;51.224;8.482;2023-03-31T18:20:03;2.97;;;1.10;;
32505;SDS011;18955;51.224;8.482;2023-03-31T18:24:57;4.57;;;1.10;;
32505;SDS011;18955;51.224;8.482;2023-03-31T18:27:23;4.22;;;0.98;;
32505;SDS011;18955;51.224;8.482;2023-03-31T18:29:50;4.40;;;0.85;;
32505;SDS011;18955;51.224;8.482;2023-03-31T18:32:16;4.32;;;0.98;;
32505;SDS011;18955;51.224;8.482;2023-03-31T18:34:42;5.40;;;0.90;;
32505;SDS011;18955;51.224;8.482;2023-03-31T18:37:09;4.50;;;1.15;;
32505;SDS011;18955;51.224;8.482;2023-03-31T18:39:35;2.55;;;0.52;;
32505;SDS011;18955;51.224;8.482;2023-03-31T18:42:01;4.93;;;1.10;;
32505;SDS011;18955;51.224;8.482;2023-03-31T18:44:28;3.10;;;0.80;;
32505;SDS011;18955;51.224;8.482;2023-03-31T18:46:54;6.03;;;1.00;;
32505;SDS011;18955;51.224;8.482;2023-03-31T18:51:47;2.53;;;1.05;;
32505;SDS011;18955;51.224;8.482;2023-03-31T18:54:13;4.38;;;0.80;;
32505;SDS011;18955;51.224;8.482;2023-03-31T18:56:39;3.30;;;0.88;;
32505;SDS011;18955;51.224;8.482;2023-03-31T18:59:06;4.90;;;1.00;;
32505;SDS011;18955;51.224;8.482;2023-03-31T19:01:32;9.68;;;1.08;;